KGYY/GYY METAR and TAF weather

Enter ICAO airport designator
Station Type Date Time Source
KGYY METAR 2018/12/18 19:45 UTC NOAA

KGYY 181945Z 15006KT 10SM SCT150 06/M02 A3013


Station Type Date Time Source
KGYY Decoded METAR 2018/12/18 19:45 UTC NOAA

Gary Regional, IN, United States (KGYY) 41-37N 087-25W
Dec 18, 2018 - 02:45 PM EST / 2018.12.18 1945 UTC
Wind: from the SSE (150 degrees) at 7 MPH (6 KT):0
Visibility: 10 mile(s):0
Sky conditions: partly cloudy
Temperature: 42 F (6 C)
Dew Point: 28 F (-2 C)
Relative Humidity: 56%
Pressure (altimeter): 30.13 in. Hg (1020 hPa)
ob: KGYY 181945Z 15006KT 10SM SCT150 06/M02 A3013
cycle: 20

Station Type Date Time Source
KGYY TAF 2018/12/18 18:24 UTC NOAA

TAF KGYY 181721Z 1818/1918 18010G16KT P6SM SCT250
FM190600 19008KT P6SM SCT150
FM191600 20010G17KT P6SM BKN150


Example: see airport list